sensor_id;sensor_type;location;lat;lon;timestamp;P1;durP1;ratioP1;P2;durP2;ratioP2
68140;SDS011;54941;52.220;104.306;2024-03-08T00:00:12;8.73;;;4.68;;
68140;SDS011;54941;52.220;104.306;2024-03-08T00:02:41;8.85;;;4.47;;
68140;SDS011;54941;52.220;104.306;2024-03-08T00:05:08;10.70;;;5.05;;
68140;SDS011;54941;52.220;104.306;2024-03-08T00:07:35;9.38;;;4.75;;
68140;SDS011;54941;52.220;104.306;2024-03-08T00:10:01;9.70;;;4.35;;
68140;SDS011;54941;52.220;104.306;2024-03-08T00:12:30;8.63;;;4.43;;
68140;SDS011;54941;52.220;104.306;2024-03-08T00:14:56;10.52;;;4.63;;
68140;SDS011;54941;52.220;104.306;2024-03-08T00:17:23;9.02;;;4.47;;
68140;SDS011;54941;52.220;104.306;2024-03-08T00:19:51;9.50;;;4.97;;
68140;SDS011;54941;52.220;104.306;2024-03-08T00:22:17;8.70;;;4.22;;
68140;SDS011;54941;52.220;104.306;2024-03-08T00:24:43;9.68;;;4.60;;
68140;SDS011;54941;52.220;104.306;2024-03-08T00:27:09;10.32;;;4.55;;
68140;SDS011;54941;52.220;104.306;2024-03-08T00:29:36;11.23;;;4.53;;
68140;SDS011;54941;52.220;104.306;2024-03-08T00:32:02;8.48;;;4.75;;
68140;SDS011;54941;52.220;104.306;2024-03-08T00:34:29;8.43;;;4.30;;
68140;SDS011;54941;52.220;104.306;2024-03-08T00:36:57;9.85;;;4.38;;
68140;SDS011;54941;52.220;104.306;2024-03-08T00:39:23;11.70;;;5.18;;
68140;SDS011;54941;52.220;104.306;2024-03-08T00:41:49;9.48;;;5.07;;
68140;SDS011;54941;52.220;104.306;2024-03-08T00:44:15;9.40;;;4.30;;
68140;SDS011;54941;52.220;104.306;2024-03-08T00:46:42;8.27;;;4.07;;
68140;SDS011;54941;52.220;104.306;2024-03-08T00:49:08;8.95;;;4.70;;
68140;SDS011;54941;52.220;104.306;2024-03-08T00:51:34;9.60;;;4.35;;
68140;SDS011;54941;52.220;104.306;2024-03-08T00:54:02;8.27;;;4.65;;
68140;SDS011;54941;52.220;104.306;2024-03-08T00:56:28;9.52;;;4.70;;
68140;SDS011;54941;52.220;104.306;2024-03-08T00:58:55;8.95;;;4.50;;
68140;SDS011;54941;52.220;104.306;2024-03-08T01:01:21;8.57;;;4.30;;
68140;SDS011;54941;52.220;104.306;2024-03-08T01:03:48;8.02;;;4.35;;
68140;SDS011;54941;52.220;104.306;2024-03-08T01:06:14;10.13;;;4.28;;
68140;SDS011;54941;52.220;104.306;2024-03-08T01:08:40;8.75;;;4.32;;
68140;SDS011;54941;52.220;104.306;2024-03-08T01:11:08;7.00;;;3.88;;
68140;SDS011;54941;52.220;104.306;2024-03-08T01:13:35;8.68;;;4.03;;
68140;SDS011;54941;52.220;104.306;2024-03-08T01:16:01;6.25;;;3.05;;
68140;SDS011;54941;52.220;104.306;2024-03-08T01:18:27;9.60;;;3.80;;
68140;SDS011;54941;52.220;104.306;2024-03-08T01:20:54;7.03;;;2.92;;
68140;SDS011;54941;52.220;104.306;2024-03-08T01:23:20;5.25;;;2.80;;
68140;SDS011;54941;52.220;104.306;2024-03-08T01:25:47;5.88;;;3.35;;
68140;SDS011;54941;52.220;104.306;2024-03-08T01:28:14;7.70;;;3.33;;
68140;SDS011;54941;52.220;104.306;2024-03-08T01:30:41;6.40;;;3.05;;
68140;SDS011;54941;52.220;104.306;2024-03-08T01:33:07;7.22;;;3.10;;
68140;SDS011;54941;52.220;104.306;2024-03-08T01:35:33;9.18;;;3.08;;
68140;SDS011;54941;52.220;104.306;2024-03-08T01:38:00;7.05;;;3.03;;
68140;SDS011;54941;52.220;104.306;2024-03-08T01:40:26;7.53;;;2.90;;
68140;SDS011;54941;52.220;104.306;2024-03-08T01:42:52;6.55;;;3.30;;
68140;SDS011;54941;52.220;104.306;2024-03-08T01:45:20;7.55;;;3.08;;
68140;SDS011;54941;52.220;104.306;2024-03-08T01:47:46;7.03;;;3.33;;
68140;SDS011;54941;52.220;104.306;2024-03-08T01:50:12;6.20;;;2.97;;
68140;SDS011;54941;52.220;104.306;2024-03-08T01:52:39;4.75;;;2.67;;
68140;SDS011;54941;52.220;104.306;2024-03-08T01:55:06;7.22;;;3.28;;
68140;SDS011;54941;52.220;104.306;2024-03-08T01:57:32;6.55;;;2.90;;
68140;SDS011;54941;52.220;104.306;2024-03-08T01:59:59;5.40;;;2.92;;
68140;SDS011;54941;52.220;104.306;2024-03-08T02:02:27;5.82;;;2.85;;
68140;SDS011;54941;52.220;104.306;2024-03-08T02:04:56;5.47;;;2.80;;
68140;SDS011;54941;52.220;104.306;2024-03-08T02:07:22;6.15;;;2.80;;
68140;SDS011;54941;52.220;104.306;2024-03-08T02:09:48;5.18;;;2.70;;
68140;SDS011;54941;52.220;104.306;2024-03-08T02:12:15;6.40;;;2.60;;
68140;SDS011;54941;52.220;104.306;2024-03-08T02:14:41;5.80;;;2.95;;
68140;SDS011;54941;52.220;104.306;2024-03-08T02:17:07;6.78;;;3.80;;
68140;SDS011;54941;52.220;104.306;2024-03-08T02:19:35;6.40;;;3.35;;
68140;SDS011;54941;52.220;104.306;2024-03-08T02:22:03;5.18;;;2.75;;
68140;SDS011;54941;52.220;104.306;2024-03-08T02:24:31;5.88;;;2.80;;
68140;SDS011;54941;52.220;104.306;2024-03-08T02:26:58;6.55;;;3.38;;
68140;SDS011;54941;52.220;104.306;2024-03-08T02:29:24;4.97;;;2.65;;
68140;SDS011;54941;52.220;104.306;2024-03-08T02:31:51;5.70;;;2.80;;
68140;SDS011;54941;52.220;104.306;2024-03-08T02:34:17;5.70;;;2.85;;
68140;SDS011;54941;52.220;104.306;2024-03-08T02:36:43;5.22;;;2.53;;
68140;SDS011;54941;52.220;104.306;2024-03-08T02:39:11;6.72;;;3.00;;
68140;SDS011;54941;52.220;104.306;2024-03-08T02:41:37;5.57;;;2.70;;
68140;SDS011;54941;52.220;104.306;2024-03-08T02:44:04;6.38;;;2.90;;
68140;SDS011;54941;52.220;104.306;2024-03-08T02:46:30;4.93;;;2.78;;
68140;SDS011;54941;52.220;104.306;2024-03-08T02:48:56;6.05;;;3.35;;
68140;SDS011;54941;52.220;104.306;2024-03-08T02:51:22;6.57;;;3.08;;
68140;SDS011;54941;52.220;104.306;2024-03-08T02:53:49;6.38;;;3.10;;
68140;SDS011;54941;52.220;104.306;2024-03-08T02:56:16;5.90;;;3.22;;
68140;SDS011;54941;52.220;104.306;2024-03-08T02:58:43;6.63;;;3.05;;
68140;SDS011;54941;52.220;104.306;2024-03-08T03:01:09;5.72;;;3.28;;
68140;SDS011;54941;52.220;104.306;2024-03-08T03:03:35;6.30;;;2.95;;
68140;SDS011;54941;52.220;104.306;2024-03-08T03:06:01;7.60;;;2.80;;
68140;SDS011;54941;52.220;104.306;2024-03-08T03:08:28;6.78;;;3.08;;
68140;SDS011;54941;52.220;104.306;2024-03-08T03:10:54;6.45;;;2.83;;
68140;SDS011;54941;52.220;104.306;2024-03-08T03:13:22;6.78;;;3.22;;
68140;SDS011;54941;52.220;104.306;2024-03-08T03:15:48;6.20;;;3.03;;
68140;SDS011;54941;52.220;104.306;2024-03-08T03:18:14;5.65;;;2.90;;
68140;SDS011;54941;52.220;104.306;2024-03-08T03:20:41;5.60;;;2.95;;
68140;SDS011;54941;52.220;104.306;2024-03-08T03:23:07;6.38;;;3.05;;
68140;SDS011;54941;52.220;104.306;2024-03-08T03:25:34;6.35;;;3.05;;
68140;SDS011;54941;52.220;104.306;2024-03-08T03:28:00;5.60;;;2.92;;
68140;SDS011;54941;52.220;104.306;2024-03-08T03:30:28;5.22;;;2.88;;
68140;SDS011;54941;52.220;104.306;2024-03-08T03:32:55;8.48;;;4.20;;
68140;SDS011;54941;52.220;104.306;2024-03-08T03:35:21;5.60;;;3.08;;
68140;SDS011;54941;52.220;104.306;2024-03-08T03:37:48;6.55;;;2.95;;
68140;SDS011;54941;52.220;104.306;2024-03-08T03:40:15;5.75;;;2.85;;
68140;SDS011;54941;52.220;104.306;2024-03-08T03:42:41;5.97;;;3.20;;
68140;SDS011;54941;52.220;104.306;2024-03-08T03:45:08;4.97;;;2.58;;
68140;SDS011;54941;52.220;104.306;2024-03-08T03:47:36;5.00;;;2.95;;
68140;SDS011;54941;52.220;104.306;2024-03-08T03:50:02;7.45;;;3.70;;
68140;SDS011;54941;52.220;104.306;2024-03-08T03:52:30;7.03;;;3.25;;
68140;SDS011;54941;52.220;104.306;2024-03-08T03:54:57;4.53;;;2.95;;
68140;SDS011;54941;52.220;104.306;2024-03-08T03:57:23;5.82;;;3.03;;
68140;SDS011;54941;52.220;104.306;2024-03-08T03:59:50;5.57;;;3.15;;
68140;SDS011;54941;52.220;104.306;2024-03-08T04:02:16;5.43;;;2.92;;
68140;SDS011;54941;52.220;104.306;2024-03-08T04:04:44;6.18;;;2.70;;
68140;SDS011;54941;52.220;104.306;2024-03-08T04:07:10;5.78;;;3.20;;
68140;SDS011;54941;52.220;104.306;2024-03-08T04:09:37;8.18;;;3.75;;
68140;SDS011;54941;52.220;104.306;2024-03-08T04:12:03;9.50;;;4.22;;
68140;SDS011;54941;52.220;104.306;2024-03-08T04:14:30;10.82;;;5.00;;
68140;SDS011;54941;52.220;104.306;2024-03-08T04:16:56;9.05;;;4.72;;
68140;SDS011;54941;52.220;104.306;2024-03-08T04:19:22;7.93;;;3.95;;
68140;SDS011;54941;52.220;104.306;2024-03-08T04:21:50;6.53;;;3.53;;
68140;SDS011;54941;52.220;104.306;2024-03-08T04:24:16;8.35;;;4.10;;
68140;SDS011;54941;52.220;104.306;2024-03-08T04:26:42;7.15;;;3.95;;
68140;SDS011;54941;52.220;104.306;2024-03-08T04:29:09;9.02;;;4.18;;
68140;SDS011;54941;52.220;104.306;2024-03-08T04:31:35;8.93;;;4.20;;
68140;SDS011;54941;52.220;104.306;2024-03-08T04:34:01;10.27;;;4.38;;
68140;SDS011;54941;52.220;104.306;2024-03-08T04:36:28;8.85;;;3.60;;
68140;SDS011;54941;52.220;104.306;2024-03-08T04:38:55;9.73;;;4.05;;
68140;SDS011;54941;52.220;104.306;2024-03-08T04:41:22;7.40;;;4.07;;
68140;SDS011;54941;52.220;104.306;2024-03-08T04:43:48;13.75;;;4.40;;
68140;SDS011;54941;52.220;104.306;2024-03-08T04:46:14;12.55;;;5.40;;
68140;SDS011;54941;52.220;104.306;2024-03-08T04:48:41;10.82;;;4.57;;
68140;SDS011;54941;52.220;104.306;2024-03-08T04:51:07;12.75;;;4.43;;
68140;SDS011;54941;52.220;104.306;2024-03-08T04:53:33;6.75;;;3.95;;
68140;SDS011;54941;52.220;104.306;2024-03-08T04:56:01;11.43;;;4.45;;
68140;SDS011;54941;52.220;104.306;2024-03-08T04:58:28;11.38;;;4.25;;
68140;SDS011;54941;52.220;104.306;2024-03-08T05:00:54;15.07;;;5.60;;
68140;SDS011;54941;52.220;104.306;2024-03-08T05:03:20;12.18;;;5.47;;
68140;SDS011;54941;52.220;104.306;2024-03-08T05:05:46;13.27;;;5.50;;
68140;SDS011;54941;52.220;104.306;2024-03-08T05:08:13;13.38;;;5.10;;
68140;SDS011;54941;52.220;104.306;2024-03-08T05:10:39;13.13;;;5.63;;
68140;SDS011;54941;52.220;104.306;2024-03-08T05:13:07;12.45;;;5.60;;
68140;SDS011;54941;52.220;104.306;2024-03-08T05:15:33;10.10;;;3.92;;
68140;SDS011;54941;52.220;104.306;2024-03-08T05:17:59;9.13;;;3.97;;
68140;SDS011;54941;52.220;104.306;2024-03-08T05:20:25;9.82;;;4.35;;
68140;SDS011;54941;52.220;104.306;2024-03-08T05:22:52;10.05;;;4.35;;
68140;SDS011;54941;52.220;104.306;2024-03-08T05:25:18;10.18;;;4.53;;
68140;SDS011;54941;52.220;104.306;2024-03-08T05:27:44;9.23;;;4.65;;
68140;SDS011;54941;52.220;104.306;2024-03-08T05:30:12;9.82;;;4.30;;
68140;SDS011;54941;52.220;104.306;2024-03-08T05:32:38;9.70;;;4.88;;
68140;SDS011;54941;52.220;104.306;2024-03-08T05:35:05;9.20;;;3.47;;
68140;SDS011;54941;52.220;104.306;2024-03-08T05:37:31;12.18;;;4.00;;
68140;SDS011;54941;52.220;104.306;2024-03-08T05:39:58;7.85;;;4.10;;
68140;SDS011;54941;52.220;104.306;2024-03-08T05:42:24;9.43;;;4.28;;
68140;SDS011;54941;52.220;104.306;2024-03-08T05:44:50;8.25;;;4.18;;
68140;SDS011;54941;52.220;104.306;2024-03-08T05:47:18;7.97;;;4.05;;
68140;SDS011;54941;52.220;104.306;2024-03-08T05:49:44;10.35;;;5.00;;
68140;SDS011;54941;52.220;104.306;2024-03-08T05:52:10;10.40;;;4.88;;
68140;SDS011;54941;52.220;104.306;2024-03-08T05:54:37;10.00;;;4.95;;
68140;SDS011;54941;52.220;104.306;2024-03-08T05:57:03;15.05;;;5.15;;
68140;SDS011;54941;52.220;104.306;2024-03-08T05:59:30;15.13;;;6.88;;
68140;SDS011;54941;52.220;104.306;2024-03-08T06:01:56;12.15;;;5.68;;
68140;SDS011;54941;52.220;104.306;2024-03-08T06:04:24;13.80;;;5.53;;
68140;SDS011;54941;52.220;104.306;2024-03-08T06:06:50;13.38;;;6.32;;
68140;SDS011;54941;52.220;104.306;2024-03-08T06:09:16;16.85;;;6.18;;
68140;SDS011;54941;52.220;104.306;2024-03-08T06:11:43;15.57;;;5.97;;
68140;SDS011;54941;52.220;104.306;2024-03-08T06:14:09;14.60;;;5.93;;
68140;SDS011;54941;52.220;104.306;2024-03-08T06:16:35;15.48;;;7.00;;
68140;SDS011;54941;52.220;104.306;2024-03-08T06:19:01;13.82;;;6.07;;
68140;SDS011;54941;52.220;104.306;2024-03-08T06:21:29;12.50;;;5.78;;
68140;SDS011;54941;52.220;104.306;2024-03-08T06:23:56;15.43;;;6.40;;
68140;SDS011;54941;52.220;104.306;2024-03-08T06:26:22;14.05;;;6.63;;
68140;SDS011;54941;52.220;104.306;2024-03-08T06:28:48;15.23;;;6.75;;
68140;SDS011;54941;52.220;104.306;2024-03-08T06:31:15;13.70;;;6.40;;
68140;SDS011;54941;52.220;104.306;2024-03-08T06:33:41;13.85;;;7.22;;
68140;SDS011;54941;52.220;104.306;2024-03-08T06:36:08;16.77;;;7.80;;
68140;SDS011;54941;52.220;104.306;2024-03-08T06:38:36;17.67;;;6.55;;
68140;SDS011;54941;52.220;104.306;2024-03-08T06:41:02;13.15;;;6.25;;
68140;SDS011;54941;52.220;104.306;2024-03-08T06:43:29;15.00;;;6.43;;
68140;SDS011;54941;52.220;104.306;2024-03-08T06:45:55;14.70;;;6.63;;
68140;SDS011;54941;52.220;104.306;2024-03-08T06:48:21;14.30;;;7.07;;
68140;SDS011;54941;52.220;104.306;2024-03-08T06:50:48;14.95;;;7.15;;
68140;SDS011;54941;52.220;104.306;2024-03-08T06:53:14;16.85;;;6.82;;
68140;SDS011;54941;52.220;104.306;2024-03-08T06:55:42;15.73;;;6.90;;
68140;SDS011;54941;52.220;104.306;2024-03-08T06:58:08;17.35;;;7.65;;
68140;SDS011;54941;52.220;104.306;2024-03-08T07:00:34;17.13;;;8.00;;
68140;SDS011;54941;52.220;104.306;2024-03-08T07:03:00;16.90;;;8.60;;
68140;SDS011;54941;52.220;104.306;2024-03-08T07:05:27;17.60;;;7.70;;
68140;SDS011;54941;52.220;104.306;2024-03-08T07:07:53;17.83;;;8.30;;
68140;SDS011;54941;52.220;104.306;2024-03-08T07:10:20;19.23;;;8.80;;
68140;SDS011;54941;52.220;104.306;2024-03-08T07:12:48;17.05;;;9.52;;
68140;SDS011;54941;52.220;104.306;2024-03-08T07:15:14;19.15;;;8.55;;
68140;SDS011;54941;52.220;104.306;2024-03-08T07:17:40;23.20;;;10.00;;
68140;SDS011;54941;52.220;104.306;2024-03-08T07:20:07;20.83;;;9.70;;
68140;SDS011;54941;52.220;104.306;2024-03-08T07:22:33;21.77;;;9.27;;
68140;SDS011;54941;52.220;104.306;2024-03-08T07:25:00;17.95;;;9.20;;
68140;SDS011;54941;52.220;104.306;2024-03-08T07:27:26;23.10;;;9.30;;
68140;SDS011;54941;52.220;104.306;2024-03-08T07:29:54;19.67;;;10.25;;
68140;SDS011;54941;52.220;104.306;2024-03-08T07:32:20;16.77;;;8.43;;
68140;SDS011;54941;52.220;104.306;2024-03-08T07:34:47;26.52;;;9.63;;
68140;SDS011;54941;52.220;104.306;2024-03-08T07:37:13;21.80;;;9.32;;
68140;SDS011;54941;52.220;104.306;2024-03-08T07:39:40;23.92;;;10.57;;
68140;SDS011;54941;52.220;104.306;2024-03-08T07:42:06;24.88;;;9.80;;
68140;SDS011;54941;52.220;104.306;2024-03-08T07:44:32;26.20;;;10.93;;
68140;SDS011;54941;52.220;104.306;2024-03-08T07:47:03;23.38;;;10.57;;
68140;SDS011;54941;52.220;104.306;2024-03-08T07:49:29;22.17;;;9.70;;
68140;SDS011;54941;52.220;104.306;2024-03-08T07:51:56;23.90;;;11.23;;
68140;SDS011;54941;52.220;104.306;2024-03-08T07:54:22;25.88;;;11.10;;
68140;SDS011;54941;52.220;104.306;2024-03-08T07:56:48;23.88;;;10.80;;
68140;SDS011;54941;52.220;104.306;2024-03-08T07:59:15;32.88;;;12.05;;
68140;SDS011;54941;52.220;104.306;2024-03-08T08:01:41;26.30;;;12.27;;
68140;SDS011;54941;52.220;104.306;2024-03-08T08:04:09;25.83;;;11.75;;
68140;SDS011;54941;52.220;104.306;2024-03-08T08:06:35;30.20;;;11.18;;
68140;SDS011;54941;52.220;104.306;2024-03-08T08:09:01;22.95;;;11.57;;
68140;SDS011;54941;52.220;104.306;2024-03-08T08:11:28;27.27;;;11.25;;
68140;SDS011;54941;52.220;104.306;2024-03-08T08:13:54;25.70;;;11.98;;
68140;SDS011;54941;52.220;104.306;2024-03-08T08:16:22;29.77;;;12.32;;
68140;SDS011;54941;52.220;104.306;2024-03-08T08:18:48;23.88;;;11.95;;
68140;SDS011;54941;52.220;104.306;2024-03-08T08:21:16;28.92;;;12.18;;
68140;SDS011;54941;52.220;104.306;2024-03-08T08:23:42;27.98;;;13.23;;
68140;SDS011;54941;52.220;104.306;2024-03-08T08:26:09;28.80;;;13.02;;
68140;SDS011;54941;52.220;104.306;2024-03-08T08:28:36;27.70;;;13.68;;
68140;SDS011;54941;52.220;104.306;2024-03-08T08:31:02;27.77;;;12.68;;
68140;SDS011;54941;52.220;104.306;2024-03-08T08:33:29;24.15;;;13.45;;
68140;SDS011;54941;52.220;104.306;2024-03-08T08:35:55;27.80;;;11.85;;
68140;SDS011;54941;52.220;104.306;2024-03-08T08:38:23;24.38;;;11.68;;
68140;SDS011;54941;52.220;104.306;2024-03-08T08:40:50;24.83;;;11.23;;
68140;SDS011;54941;52.220;104.306;2024-03-08T08:43:16;25.40;;;11.45;;
68140;SDS011;54941;52.220;104.306;2024-03-08T08:45:43;27.45;;;12.93;;
68140;SDS011;54941;52.220;104.306;2024-03-08T08:48:09;24.63;;;12.10;;
68140;SDS011;54941;52.220;104.306;2024-03-08T08:50:35;24.00;;;12.55;;
68140;SDS011;54941;52.220;104.306;2024-03-08T08:53:02;28.02;;;12.57;;
68140;SDS011;54941;52.220;104.306;2024-03-08T08:55:30;26.90;;;12.93;;
68140;SDS011;54941;52.220;104.306;2024-03-08T08:57:56;28.70;;;13.00;;
68140;SDS011;54941;52.220;104.306;2024-03-08T09:00:23;26.85;;;11.50;;
68140;SDS011;54941;52.220;104.306;2024-03-08T09:02:49;33.08;;;13.02;;
68140;SDS011;54941;52.220;104.306;2024-03-08T09:05:15;26.13;;;12.05;;
68140;SDS011;54941;52.220;104.306;2024-03-08T09:07:42;23.92;;;11.35;;
68140;SDS011;54941;52.220;104.306;2024-03-08T09:10:08;25.25;;;11.20;;
68140;SDS011;54941;52.220;104.306;2024-03-08T09:12:36;24.00;;;11.95;;
68140;SDS011;54941;52.220;104.306;2024-03-08T09:15:03;23.67;;;11.82;;
68140;SDS011;54941;52.220;104.306;2024-03-08T09:17:30;26.50;;;12.95;;
68140;SDS011;54941;52.220;104.306;2024-03-08T09:19:56;28.80;;;11.73;;
68140;SDS011;54941;52.220;104.306;2024-03-08T09:22:23;25.30;;;13.65;;
68140;SDS011;54941;52.220;104.306;2024-03-08T09:24:49;24.08;;;11.45;;
68140;SDS011;54941;52.220;104.306;2024-03-08T09:27:15;27.10;;;12.35;;
68140;SDS011;54941;52.220;104.306;2024-03-08T09:29:43;23.05;;;11.48;;
68140;SDS011;54941;52.220;104.306;2024-03-08T09:32:09;25.40;;;11.65;;
68140;SDS011;54941;52.220;104.306;2024-03-08T09:34:35;20.98;;;10.95;;
68140;SDS011;54941;52.220;104.306;2024-03-08T09:37:02;31.17;;;14.45;;
68140;SDS011;54941;52.220;104.306;2024-03-08T09:39:28;27.40;;;11.90;;
68140;SDS011;54941;52.220;104.306;2024-03-08T09:41:54;27.42;;;11.48;;
68140;SDS011;54941;52.220;104.306;2024-03-08T09:44:21;24.75;;;12.27;;
68140;SDS011;54941;52.220;104.306;2024-03-08T09:46:50;26.83;;;11.60;;
68140;SDS011;54941;52.220;104.306;2024-03-08T09:49:16;27.50;;;11.38;;
68140;SDS011;54941;52.220;104.306;2024-03-08T09:51:43;27.90;;;12.35;;
68140;SDS011;54941;52.220;104.306;2024-03-08T09:54:10;26.48;;;12.95;;
68140;SDS011;54941;52.220;104.306;2024-03-08T09:56:36;24.33;;;12.05;;
68140;SDS011;54941;52.220;104.306;2024-03-08T09:59:04;29.45;;;13.32;;
68140;SDS011;54941;52.220;104.306;2024-03-08T10:01:30;28.38;;;12.45;;
68140;SDS011;54941;52.220;104.306;2024-03-08T10:03:58;28.40;;;12.82;;
68140;SDS011;54941;52.220;104.306;2024-03-08T10:06:24;24.73;;;12.25;;
68140;SDS011;54941;52.220;104.306;2024-03-08T10:08:51;31.55;;;13.25;;
68140;SDS011;54941;52.220;104.306;2024-03-08T10:11:17;29.98;;;12.70;;
68140;SDS011;54941;52.220;104.306;2024-03-08T10:13:44;20.77;;;12.32;;
68140;SDS011;54941;52.220;104.306;2024-03-08T10:16:10;22.42;;;11.55;;
68140;SDS011;54941;52.220;104.306;2024-03-08T10:18:37;26.27;;;11.70;;
68140;SDS011;54941;52.220;104.306;2024-03-08T10:21:05;18.85;;;11.38;;
68140;SDS011;54941;52.220;104.306;2024-03-08T10:26:08;24.70;;;10.93;;
68140;SDS011;54941;52.220;104.306;2024-03-08T10:28:35;28.60;;;12.20;;
68140;SDS011;54941;52.220;104.306;2024-03-08T10:31:02;26.35;;;12.30;;
68140;SDS011;54941;52.220;104.306;2024-03-08T10:33:28;25.00;;;11.90;;
68140;SDS011;54941;52.220;104.306;2024-03-08T10:35:55;26.08;;;12.35;;
68140;SDS011;54941;52.220;104.306;2024-03-08T10:38:22;23.25;;;11.85;;
68140;SDS011;54941;52.220;104.306;2024-03-08T10:40:50;26.88;;;12.52;;
68140;SDS011;54941;52.220;104.306;2024-03-08T10:43:18;28.25;;;11.40;;
68140;SDS011;54941;52.220;104.306;2024-03-08T10:45:49;27.02;;;12.85;;
68140;SDS011;54941;52.220;104.306;2024-03-08T10:48:26;34.47;;;14.90;;
68140;SDS011;54941;52.220;104.306;2024-03-08T10:50:54;32.08;;;15.20;;
68140;SDS011;54941;52.220;104.306;2024-03-08T10:53:24;26.67;;;13.65;;
68140;SDS011;54941;52.220;104.306;2024-03-08T10:55:53;26.92;;;12.35;;
68140;SDS011;54941;52.220;104.306;2024-03-08T10:58:21;25.98;;;12.63;;
68140;SDS011;54941;52.220;104.306;2024-03-08T11:00:49;26.85;;;13.20;;
68140;SDS011;54941;52.220;104.306;2024-03-08T11:06:15;26.02;;;12.20;;
68140;SDS011;54941;52.220;104.306;2024-03-08T11:08:44;22.17;;;11.55;;
68140;SDS011;54941;52.220;104.306;2024-03-08T11:11:24;29.50;;;12.82;;
68140;SDS011;54941;52.220;104.306;2024-03-08T11:13:51;24.50;;;12.18;;
68140;SDS011;54941;52.220;104.306;2024-03-08T11:16:37;26.77;;;11.55;;
68140;SDS011;54941;52.220;104.306;2024-03-08T11:19:06;28.15;;;12.90;;
68140;SDS011;54941;52.220;104.306;2024-03-08T11:21:48;27.13;;;12.40;;
68140;SDS011;54941;52.220;104.306;2024-03-08T11:24:24;31.20;;;13.73;;
68140;SDS011;54941;52.220;104.306;2024-03-08T11:26:52;30.30;;;14.18;;
68140;SDS011;54941;52.220;104.306;2024-03-08T11:29:35;29.55;;;11.77;;
68140;SDS011;54941;52.220;104.306;2024-03-08T11:32:06;33.40;;;15.55;;
68140;SDS011;54941;52.220;104.306;2024-03-08T11:34:33;26.27;;;13.38;;
68140;SDS011;54941;52.220;104.306;2024-03-08T11:37:00;24.63;;;12.23;;
68140;SDS011;54941;52.220;104.306;2024-03-08T11:39:27;28.70;;;13.30;;
68140;SDS011;54941;52.220;104.306;2024-03-08T11:41:55;27.88;;;11.50;;
68140;SDS011;54941;52.220;104.306;2024-03-08T11:44:21;22.50;;;10.93;;
68140;SDS011;54941;52.220;104.306;2024-03-08T11:46:51;25.70;;;12.43;;
68140;SDS011;54941;52.220;104.306;2024-03-08T11:49:18;27.55;;;12.38;;
68140;SDS011;54941;52.220;104.306;2024-03-08T11:51:44;24.75;;;11.77;;
68140;SDS011;54941;52.220;104.306;2024-03-08T11:54:11;27.98;;;13.35;;
68140;SDS011;54941;52.220;104.306;2024-03-08T11:56:39;26.58;;;12.07;;
68140;SDS011;54941;52.220;104.306;2024-03-08T11:59:06;24.40;;;10.65;;
68140;SDS011;54941;52.220;104.306;2024-03-08T12:01:37;23.45;;;11.93;;
68140;SDS011;54941;52.220;104.306;2024-03-08T12:04:03;27.40;;;10.90;;
68140;SDS011;54941;52.220;104.306;2024-03-08T12:06:36;21.20;;;10.65;;
68140;SDS011;54941;52.220;104.306;2024-03-08T12:09:03;25.10;;;11.40;;
68140;SDS011;54941;52.220;104.306;2024-03-08T12:11:29;21.98;;;10.57;;
68140;SDS011;54941;52.220;104.306;2024-03-08T12:13:57;26.17;;;11.98;;
68140;SDS011;54941;52.220;104.306;2024-03-08T12:16:23;22.23;;;10.93;;
68140;SDS011;54941;52.220;104.306;2024-03-08T12:18:50;24.17;;;10.27;;
68140;SDS011;54941;52.220;104.306;2024-03-08T12:21:18;18.00;;;9.35;;
68140;SDS011;54941;52.220;104.306;2024-03-08T12:23:44;17.40;;;7.93;;
68140;SDS011;54941;52.220;104.306;2024-03-08T12:26:11;13.57;;;6.13;;
68140;SDS011;54941;52.220;104.306;2024-03-08T12:28:37;18.35;;;8.65;;
68140;SDS011;54941;52.220;104.306;2024-03-08T12:31:06;19.92;;;8.77;;
68140;SDS011;54941;52.220;104.306;2024-03-08T12:33:33;20.60;;;9.57;;
68140;SDS011;54941;52.220;104.306;2024-03-08T12:35:59;17.98;;;9.13;;
68140;SDS011;54941;52.220;104.306;2024-03-08T12:38:27;21.90;;;10.35;;
68140;SDS011;54941;52.220;104.306;2024-03-08T12:40:55;22.70;;;8.95;;
68140;SDS011;54941;52.220;104.306;2024-03-08T12:43:24;18.05;;;8.20;;
68140;SDS011;54941;52.220;104.306;2024-03-08T12:45:50;16.70;;;8.63;;
68140;SDS011;54941;52.220;104.306;2024-03-08T12:48:18;17.63;;;9.10;;
68140;SDS011;54941;52.220;104.306;2024-03-08T12:50:45;19.80;;;8.65;;
68140;SDS011;54941;52.220;104.306;2024-03-08T12:53:11;19.50;;;9.13;;
68140;SDS011;54941;52.220;104.306;2024-03-08T12:55:37;18.42;;;8.13;;
68140;SDS011;54941;52.220;104.306;2024-03-08T12:58:04;14.60;;;7.07;;
68140;SDS011;54941;52.220;104.306;2024-03-08T13:00:30;15.48;;;6.55;;
68140;SDS011;54941;52.220;104.306;2024-03-08T13:02:56;12.20;;;5.55;;
68140;SDS011;54941;52.220;104.306;2024-03-08T13:05:24;13.63;;;6.57;;
68140;SDS011;54941;52.220;104.306;2024-03-08T13:07:51;13.30;;;6.60;;
68140;SDS011;54941;52.220;104.306;2024-03-08T13:10:17;9.52;;;5.07;;
68140;SDS011;54941;52.220;104.306;2024-03-08T13:12:44;9.18;;;5.32;;
68140;SDS011;54941;52.220;104.306;2024-03-08T13:15:10;10.85;;;4.65;;
68140;SDS011;54941;52.220;104.306;2024-03-08T13:17:37;8.20;;;3.63;;
68140;SDS011;54941;52.220;104.306;2024-03-08T13:20:04;7.45;;;3.85;;
68140;SDS011;54941;52.220;104.306;2024-03-08T13:22:32;7.38;;;3.47;;
68140;SDS011;54941;52.220;104.306;2024-03-08T13:24:58;9.68;;;3.63;;
68140;SDS011;54941;52.220;104.306;2024-03-08T13:27:25;7.90;;;3.53;;
68140;SDS011;54941;52.220;104.306;2024-03-08T13:29:51;5.95;;;2.95;;
68140;SDS011;54941;52.220;104.306;2024-03-08T13:32:17;8.40;;;3.22;;
68140;SDS011;54941;52.220;104.306;2024-03-08T13:34:43;9.25;;;3.63;;
68140;SDS011;54941;52.220;104.306;2024-03-08T13:37:10;6.47;;;3.40;;
68140;SDS011;54941;52.220;104.306;2024-03-08T13:39:38;6.57;;;3.00;;
68140;SDS011;54941;52.220;104.306;2024-03-08T13:42:04;7.15;;;3.08;;
68140;SDS011;54941;52.220;104.306;2024-03-08T13:44:31;6.68;;;3.03;;
68140;SDS011;54941;52.220;104.306;2024-03-08T13:46:57;7.13;;;2.95;;
68140;SDS011;54941;52.220;104.306;2024-03-08T13:49:24;7.72;;;2.97;;
68140;SDS011;54941;52.220;104.306;2024-03-08T13:51:50;7.93;;;3.17;;
68140;SDS011;54941;52.220;104.306;2024-03-08T13:54:16;5.93;;;2.60;;
68140;SDS011;54941;52.220;104.306;2024-03-08T13:56:44;7.32;;;3.55;;
68140;SDS011;54941;52.220;104.306;2024-03-08T13:59:10;5.90;;;3.15;;
68140;SDS011;54941;52.220;104.306;2024-03-08T14:01:37;9.85;;;3.60;;
68140;SDS011;54941;52.220;104.306;2024-03-08T14:04:03;7.72;;;3.35;;
68140;SDS011;54941;52.220;104.306;2024-03-08T14:06:29;7.85;;;3.75;;
68140;SDS011;54941;52.220;104.306;2024-03-08T14:08:55;8.57;;;3.55;;
68140;SDS011;54941;52.220;104.306;2024-03-08T14:11:22;7.38;;;3.20;;
68140;SDS011;54941;52.220;104.306;2024-03-08T14:13:49;5.75;;;3.10;;